Time;durP1;ratioP1;P1;durP2;ratioP2;P2;SDS_P1;SDS_P2;PMS_P1;PMS_P2;Temp;Humidity;BMP_temperature;BMP_pressure;BME280_temperature;BME280_humidity;BME280_pressure;Samples;Min_cycle;Max_cycle;Signal;HPM_P1;HPM_P2
2023/01/01 00:01:44;;;;;;;10.83;5.60;;;17.90;60.00;;;20.19;42.56;100538.34;5031644;28;20237;-54
2023/01/01 00:04:14;;;;;;;8.80;5.23;;;17.80;60.10;;;20.29;42.72;100523.53;5032130;28;20190;-53
2023/01/01 00:06:45;;;;;;;10.07;5.00;;;17.80;60.30;;;20.31;43.36;100521.44;5032382;28;20542;-53
2023/01/01 00:11:57;;;;;;;12.80;6.30;;;17.90;60.60;;;20.21;43.31;100538.09;5032444;28;20543;-56
2023/01/01 00:14:26;;;;;;;10.60;5.83;;;17.80;60.40;;;20.22;43.44;100535.22;5032087;28;20674;-56
2023/01/01 00:16:55;;;;;;;10.73;5.90;;;17.90;60.50;;;20.29;43.24;100532.38;5032076;28;20199;-55
2023/01/01 00:19:23;;;;;;;12.73;5.23;;;17.90;60.50;;;20.38;43.39;100540.78;5031898;28;20679;-52
2023/01/01 00:21:50;;;;;;;10.63;5.90;;;17.90;60.90;;;20.41;42.82;100532.28;5031913;28;20207;-57
2023/01/01 00:24:17;;;;;;;11.07;5.20;;;17.90;60.80;;;20.41;43.16;100527.75;5031932;28;20492;-57
2023/01/01 00:26:44;;;;;;;10.67;5.47;;;17.90;60.60;;;20.46;42.52;100545.75;5032186;28;20290;-53
2023/01/01 00:29:11;;;;;;;13.27;5.40;;;17.90;60.60;;;20.41;42.98;100542.97;5032638;28;20605;-56
2023/01/01 00:31:40;;;;;;;10.60;5.20;;;17.90;60.20;;;20.45;42.31;100554.81;5017873;28;20625;-55
2023/01/01 00:34:09;;;;;;;12.43;7.13;;;17.90;59.90;;;20.42;42.55;100529.38;5020727;28;20605;-54
2023/01/01 00:36:36;;;;;;;10.30;5.23;;;17.90;59.70;;;20.32;42.56;100550.63;5035936;28;20237;-54
2023/01/01 00:39:03;;;;;;;10.07;5.03;;;17.90;59.80;;;20.31;42.34;100537.47;5035865;28;20214;-53
2023/01/01 00:41:30;;;;;;;11.20;4.60;;;18.00;59.60;;;20.38;42.10;100548.81;5035936;28;20302;-55
2023/01/01 00:43:58;;;;;;;8.13;4.37;;;18.00;59.60;;;20.36;42.17;100551.75;5036839;28;20225;-54
2023/01/01 00:46:24;;;;;;;12.87;4.80;;;18.00;59.50;;;20.42;41.94;100539.28;5035479;28;20199;-53
2023/01/01 00:48:53;;;;;;;11.83;4.70;;;18.00;59.40;;;20.48;41.99;100548.97;5016060;28;20579;-54
2023/01/01 00:51:20;;;;;;;6.70;4.03;;;18.00;59.30;;;20.53;42.32;100544.53;5016677;28;20265;-55
2023/01/01 00:53:47;;;;;;;11.37;4.63;;;18.00;59.30;;;20.57;42.25;100548.31;5016184;28;20187;-54
2023/01/01 00:56:14;;;;;;;13.03;5.00;;;18.00;59.20;;;20.60;41.71;100547.03;5016670;28;20191;-54
2023/01/01 00:58:40;;;;;;;8.17;4.13;;;18.00;59.10;;;20.60;42.06;100558.53;5015582;28;20195;-53
2023/01/01 01:01:07;;;;;;;9.57;4.60;;;18.00;59.10;;;20.65;41.45;100555.13;5015302;28;20191;-54
2023/01/01 01:03:37;;;;;;;9.53;3.97;;;18.00;59.00;;;20.65;41.57;100557.81;5024282;28;20260;-56
2023/01/01 01:06:13;;;;;;;11.33;4.57;;;18.00;58.70;;;20.64;41.66;100564.19;5034955;28;20231;-56
2023/01/01 01:08:44;;;;;;;10.20;4.50;;;18.00;58.70;;;20.57;41.42;100574.25;5035110;28;20272;-53
2023/01/01 01:11:15;;;;;;;10.67;4.67;;;18.10;58.60;;;20.47;41.59;100571.41;5035602;28;20254;-56
2023/01/01 01:13:44;;;;;;;7.77;3.67;;;18.00;58.60;;;20.58;41.55;100573.22;5035476;28;20202;-56
2023/01/01 01:16:14;;;;;;;9.10;3.90;;;18.10;58.80;;;20.62;41.84;100577.00;5035275;28;20240;-53
2023/01/01 01:18:41;;;;;;;10.40;3.80;;;18.10;58.70;;;20.68;41.43;100581.41;5035158;28;20218;-56
2023/01/01 01:21:14;;;;;;;7.57;3.67;;;18.10;58.90;;;20.72;41.87;100577.19;5018228;28;20229;-53
2023/01/01 01:23:41;;;;;;;9.60;4.37;;;18.10;58.80;;;20.62;41.36;100580.50;5015940;28;20203;-53
2023/01/01 01:26:10;;;;;;;7.27;3.97;;;18.10;58.60;;;20.64;41.74;100572.22;5015554;28;20768;-54
2023/01/01 01:28:38;;;;;;;10.43;4.27;;;18.10;59.00;;;20.61;41.92;100581.53;5015661;28;20652;-53
2023/01/01 01:31:12;;;;;;;9.67;4.13;;;18.10;58.90;;;20.56;41.39;100576.13;5026384;28;20197;-54
2023/01/01 01:33:41;;;;;;;7.53;3.70;;;18.10;58.70;;;20.58;42.19;100568.69;5035126;28;20182;-54
2023/01/01 01:36:11;;;;;;;9.00;3.73;;;18.10;59.10;;;20.55;41.66;100571.03;5035029;28;20601;-54
2023/01/01 01:38:38;;;;;;;6.63;3.70;;;18.10;59.60;;;20.56;41.65;100575.31;5034539;28;20586;-55
2023/01/01 01:41:05;;;;;;;9.87;4.20;;;18.00;59.00;;;20.42;41.65;100577.50;5034778;28;20195;-56
2023/01/01 01:43:54;;;;;;;8.40;4.00;;;18.00;58.80;;;20.41;41.91;100583.09;5034932;28;20276;-56
2023/01/01 01:46:31;;;;;;;9.37;4.30;;;18.00;58.80;;;20.40;41.93;100573.44;5034922;28;20555;-54
2023/01/01 01:49:03;;;;;;;11.77;4.37;;;18.00;59.00;;;20.47;42.30;100574.09;5034289;28;20264;-56
2023/01/01 01:51:38;;;;;;;8.20;3.83;;;18.00;59.10;;;20.47;42.34;100587.47;5034421;28;20608;-56
2023/01/01 01:54:13;;;;;;;11.27;4.30;;;18.00;59.20;;;20.49;42.17;100604.09;5022758;28;20616;-56
2023/01/01 01:56:47;;;;;;;10.30;4.47;;;18.00;59.30;;;20.47;42.38;100598.16;5021161;28;20221;-55
2023/01/01 01:59:18;;;;;;;7.57;3.57;;;17.90;59.10;;;20.52;42.18;100608.94;5034435;28;20714;-54
2023/01/01 02:01:45;;;;;;;11.97;4.20;;;17.90;59.40;;;20.57;42.51;100607.16;5033688;28;20203;-56
2023/01/01 02:04:13;;;;;;;6.50;4.07;;;18.00;59.70;;;20.55;42.29;100619.16;5034316;28;20655;-56
2023/01/01 02:06:46;;;;;;;8.50;4.90;;;18.00;59.60;;;20.55;42.62;100622.66;5034540;28;20190;-56
2023/01/01 02:09:14;;;;;;;11.30;5.27;;;18.00;59.70;;;20.61;42.66;100627.00;5033992;28;20214;-56
2023/01/01 02:11:40;;;;;;;6.63;5.23;;;18.00;60.00;;;20.61;42.79;100618.22;5015554;28;20203;-54
2023/01/01 02:14:08;;;;;;;9.40;5.53;;;18.00;60.30;;;20.55;42.39;100614.63;5014475;28;20195;-54
2023/01/01 02:16:42;;;;;;;10.17;5.77;;;18.00;60.50;;;20.54;42.99;100613.00;5014626;28;20555;-53
2023/01/01 02:19:23;;;;;;;8.47;5.13;;;18.00;60.80;;;20.57;42.97;100627.75;5014377;28;20655;-53
2023/01/01 02:22:05;;;;;;;14.13;5.73;;;18.00;61.00;;;20.54;42.96;100628.25;5014375;28;20190;-55
2023/01/01 02:25:09;;;;;;;10.33;4.90;;;18.00;61.00;;;20.52;43.12;100616.97;5014562;28;20175;-55
2023/01/01 02:27:50;;;;;;;8.13;4.63;;;18.00;61.20;;;20.53;43.22;100616.75;5014785;28;20234;-55
2023/01/01 02:30:19;;;;;;;7.50;4.67;;;18.00;61.30;;;20.57;43.22;100617.06;5033939;28;20214;-56
2023/01/01 02:32:51;;;;;;;7.33;4.80;;;18.00;61.40;;;20.57;43.42;100625.06;5033952;28;20289;-54
2023/01/01 02:35:34;;;;;;;10.43;5.17;;;18.00;61.50;;;20.48;43.41;100623.84;5022548;28;20191;-55
2023/01/01 02:38:08;;;;;;;9.63;5.07;;;17.90;61.30;;;20.46;43.78;100637.47;5018515;28;20514;-55
2023/01/01 02:40:42;;;;;;;5.77;4.83;;;18.00;61.00;;;20.50;43.78;100643.16;5013010;28;20297;-56
2023/01/01 02:43:09;;;;;;;13.33;4.77;;;18.00;61.80;;;20.46;43.85;100658.88;5017251;28;20209;-57
2023/01/01 02:45:37;;;;;;;9.10;4.37;;;18.00;61.90;;;20.49;43.99;100641.53;5033569;28;20593;-57
2023/01/01 02:48:26;;;;;;;9.43;5.00;;;18.00;62.00;;;20.50;43.84;100635.94;5033865;28;20201;-56
2023/01/01 02:51:00;;;;;;;6.03;4.17;;;17.90;61.90;;;20.36;43.67;100641.81;5033636;28;20195;-56
2023/01/01 02:53:36;;;;;;;8.80;4.80;;;17.90;62.00;;;20.37;44.08;100627.44;5033114;28;20197;-56
2023/01/01 02:56:12;;;;;;;7.77;4.47;;;17.90;62.10;;;20.42;44.11;100630.19;5033819;28;20178;-57
2023/01/01 03:01:47;;;;;;;8.17;4.67;;;17.90;62.80;;;20.40;44.50;100637.63;5013242;28;20247;-53
2023/01/01 03:04:25;;;;;;;8.23;4.50;;;17.90;63.30;;;20.30;44.56;100637.47;5013883;28;20540;-57
2023/01/01 03:07:04;;;;;;;7.10;4.03;;;17.80;63.40;;;20.08;45.76;100658.69;5013804;28;20225;-56
2023/01/01 03:09:43;;;;;;;6.77;4.50;;;17.80;64.00;;;20.11;45.64;100655.53;5013543;28;20726;-54
2023/01/01 03:12:24;;;;;;;8.53;5.53;;;17.70;64.20;;;20.09;45.69;100657.59;5013843;28;20187;-53
2023/01/01 03:15:00;;;;;;;8.47;4.60;;;17.70;64.60;;;20.08;46.03;100654.16;5013823;28;20215;-53
2023/01/01 03:17:33;;;;;;;10.07;5.00;;;17.60;65.10;;;20.08;46.24;100662.16;5023196;28;20604;-55
2023/01/01 03:20:07;;;;;;;9.63;5.10;;;17.60;65.30;;;20.16;45.67;100653.75;5033359;28;20207;-53
2023/01/01 03:22:40;;;;;;;10.97;5.10;;;17.60;65.30;;;20.18;45.70;100643.63;5031679;28;20198;-53
2023/01/01 03:25:13;;;;;;;7.57;4.47;;;17.60;65.30;;;20.22;45.71;100652.84;5013197;28;20195;-53
2023/01/01 03:27:48;;;;;;;8.10;4.60;;;17.60;65.40;;;20.21;46.07;100663.72;5013913;28;20199;-56
2023/01/01 03:30:18;;;;;;;10.00;5.63;;;17.60;65.30;;;20.13;45.66;100664.91;5013448;28;20214;-54
2023/01/01 03:32:58;;;;;;;9.33;4.77;;;17.60;65.10;;;20.13;45.99;100656.88;5013660;28;20621;-55
2023/01/01 03:35:34;;;;;;;8.23;4.80;;;17.60;65.30;;;20.18;45.71;100667.69;5013896;28;20229;-54
2023/01/01 03:38:09;;;;;;;7.20;5.40;;;17.60;65.30;;;20.18;45.68;100646.28;5013093;28;20194;-54
2023/01/01 03:40:39;;;;;;;9.93;5.43;;;17.60;65.10;;;20.09;45.54;100652.25;5012801;28;20217;-57
2023/01/01 03:43:13;;;;;;;9.33;4.90;;;17.60;64.90;;;20.07;45.91;100665.88;5012995;28;20219;-54
2023/01/01 03:45:46;;;;;;;10.23;5.17;;;17.60;64.80;;;20.09;45.76;100663.78;5013449;28;20632;-55
2023/01/01 03:48:13;;;;;;;7.23;3.90;;;17.60;64.70;;;20.12;45.30;100667.84;5018384;28;20197;-55
2023/01/01 03:50:57;;;;;;;8.27;4.47;;;17.60;64.70;;;20.10;45.23;100673.44;5032866;28;20211;-52
2023/01/01 03:53:37;;;;;;;7.07;4.43;;;17.60;64.60;;;20.03;45.07;100670.09;5032801;28;20205;-55
2023/01/01 03:56:16;;;;;;;7.90;4.30;;;17.50;64.00;;;20.01;45.21;100666.03;5033243;28;20558;-56
2023/01/01 03:58:50;;;;;;;10.20;4.40;;;17.50;63.90;;;20.06;45.30;100664.25;5032977;28;20206;-55
2023/01/01 04:01:25;;;;;;;6.33;4.80;;;17.50;63.90;;;20.10;45.12;100675.28;5033060;28;20662;-56
2023/01/01 04:03:54;;;;;;;7.53;4.10;;;17.50;64.00;;;20.15;45.14;100664.69;5028193;28;20213;-56
2023/01/01 04:06:22;;;;;;;6.67;3.83;;;17.50;63.70;;;20.18;44.46;100664.22;5016934;28;20566;-53
2023/01/01 04:08:56;;;;;;;9.83;4.43;;;17.50;63.70;;;20.16;44.68;100677.81;5031843;28;20218;-57
2023/01/01 04:14:27;;;;;;;8.63;4.50;;;17.50;62.90;;;20.11;44.08;100659.00;5036450;28;20524;-54
2023/01/01 04:16:54;;;;;;;8.37;4.13;;;17.50;62.90;;;20.15;44.41;100670.84;5036750;28;20194;-57
2023/01/01 04:19:22;;;;;;;9.40;4.00;;;17.50;62.60;;;20.16;43.95;100667.09;5030699;28;20230;-54
2023/01/01 04:21:49;;;;;;;5.93;4.03;;;17.60;63.00;;;20.14;44.12;100666.53;5032863;28;20199;-56
2023/01/01 04:24:17;;;;;;;8.53;4.57;;;17.50;62.10;;;20.15;43.35;100657.50;5036551;28;20315;-56
2023/01/01 04:26:44;;;;;;;5.13;3.97;;;17.60;61.70;;;20.19;43.43;100676.50;5036492;28;20222;-55
2023/01/01 04:29:11;;;;;;;7.50;4.40;;;17.50;61.70;;;20.06;43.03;100674.94;5036371;28;20686;-53
2023/01/01 04:31:38;;;;;;;6.80;3.83;;;17.50;60.60;;;20.09;42.84;100663.78;5037360;28;20210;-53
2023/01/01 04:34:05;;;;;;;10.17;3.57;;;17.60;60.70;;;20.14;42.64;100661.19;5036759;28;20191;-53
2023/01/01 04:36:33;;;;;;;8.73;3.83;;;17.60;60.40;;;20.12;42.96;100676.66;5036757;28;20198;-56
2023/01/01 04:39:00;;;;;;;9.63;4.67;;;17.60;60.00;;;20.01;42.66;100666.84;5035724;28;20309;-56
2023/01/01 04:41:28;;;;;;;6.93;3.53;;;17.50;60.20;;;20.08;42.49;100661.34;5036244;28;20663;-56
2023/01/01 04:43:55;;;;;;;6.27;3.67;;;17.60;59.60;;;20.13;42.11;100661.44;5035996;28;20210;-53
2023/01/01 04:46:23;;;;;;;7.30;3.73;;;17.60;59.40;;;20.17;42.42;100668.75;5035551;28;20675;-55
2023/01/01 04:48:50;;;;;;;7.87;3.43;;;17.60;59.60;;;20.16;41.78;100669.78;5035431;28;20298;-56
2023/01/01 04:51:20;;;;;;;10.70;3.07;;;17.60;59.10;;;20.19;42.02;100658.63;5036015;28;20708;-56
2023/01/01 04:53:47;;;;;;;5.23;3.57;;;17.60;59.30;;;20.24;42.02;100677.47;5036045;28;20214;-53
2023/01/01 04:56:18;;;;;;;7.10;3.33;;;17.60;59.40;;;20.20;42.01;100649.56;5035754;28;20246;-55
2023/01/01 04:58:47;;;;;;;8.60;3.13;;;17.60;58.70;;;20.21;41.67;100663.72;5035501;28;20570;-56
2023/01/01 05:01:17;;;;;;;3.87;2.73;;;17.60;58.50;;;20.24;42.08;100666.78;5024613;28;20222;-53
2023/01/01 05:03:45;;;;;;;5.13;2.90;;;17.60;58.80;;;20.25;41.24;100656.91;5016508;28;20229;-52
2023/01/01 05:06:13;;;;;;;6.30;3.17;;;17.60;58.60;;;20.28;41.38;100666.31;5016720;28;20559;-55
2023/01/01 05:08:43;;;;;;;7.57;3.53;;;17.60;58.60;;;20.29;41.58;100663.38;5030599;28;20298;-53
2023/01/01 05:11:14;;;;;;;4.77;3.00;;;17.60;58.60;;;20.30;41.45;100667.66;5036084;28;20171;-53
2023/01/01 05:13:44;;;;;;;4.90;3.10;;;17.60;58.40;;;20.34;41.64;100673.34;5036091;28;20263;-53
2023/01/01 05:16:14;;;;;;;8.17;3.40;;;17.60;58.30;;;20.27;40.99;100676.19;5019440;28;20194;-54
2023/01/01 05:18:43;;;;;;;4.80;2.87;;;17.60;58.00;;;20.26;40.81;100685.25;5016589;28;20215;-54
2023/01/01 05:21:14;;;;;;;6.93;3.03;;;17.60;57.90;;;20.32;40.99;100694.16;5016444;28;20192;-54
2023/01/01 05:23:41;;;;;;;8.70;3.27;;;17.70;58.20;;;20.35;41.29;100699.03;5016464;28;20218;-54
2023/01/01 05:26:10;;;;;;;5.00;3.10;;;17.70;58.00;;;20.27;41.24;100702.91;5016221;28;20557;-55
2023/01/01 05:28:37;;;;;;;7.07;3.40;;;17.60;57.80;;;20.30;40.78;100701.63;5015876;28;20358;-54
2023/01/01 05:31:07;;;;;;;5.67;3.10;;;17.70;57.80;;;20.32;40.58;100704.88;5017093;28;20671;-55
2023/01/01 05:33:36;;;;;;;7.43;3.27;;;17.60;57.70;;;20.31;40.98;100713.94;5016743;28;20187;-54
2023/01/01 05:36:06;;;;;;;8.47;3.10;;;17.60;57.60;;;20.11;41.07;100712.44;5016716;28;20266;-53
2023/01/01 05:38:34;;;;;;;6.33;2.97;;;17.70;57.40;;;20.17;41.24;100714.19;5017195;28;20533;-54
2023/01/01 05:41:06;;;;;;;6.77;3.00;;;17.60;57.20;;;20.07;40.62;100713.97;5017647;28;20191;-55
2023/01/01 05:43:33;;;;;;;7.27;3.63;;;17.60;57.20;;;20.11;41.08;100715.13;5019070;28;20556;-55
2023/01/01 05:46:01;;;;;;;5.07;2.90;;;17.60;57.40;;;20.15;40.68;100713.63;5018894;28;20199;-55
2023/01/01 05:48:28;;;;;;;5.33;3.20;;;17.60;57.40;;;20.17;40.94;100714.19;5018410;28;20195;-57
2023/01/01 05:51:02;;;;;;;6.17;2.77;;;17.60;57.20;;;20.15;40.34;100715.47;5019606;28;20191;-55
2023/01/01 05:53:30;;;;;;;4.83;3.00;;;17.60;57.20;;;20.16;40.38;100717.09;5019040;28;20186;-56
2023/01/01 05:55:57;;;;;;;4.97;2.50;;;17.60;57.20;;;20.09;40.81;100733.25;5017948;28;20199;-56
2023/01/01 05:58:25;;;;;;;5.20;2.53;;;17.50;57.00;;;20.08;40.92;100730.84;5016714;28;20196;-55
2023/01/01 06:00:52;;;;;;;10.10;2.87;;;17.60;57.10;;;20.06;40.47;100744.41;5032611;28;20197;-57
2023/01/01 06:03:20;;;;;;;8.73;3.50;;;17.60;57.10;;;20.09;40.69;100751.16;5038519;28;20540;-54
2023/01/01 06:05:46;;;;;;;5.77;2.53;;;17.50;57.10;;;20.11;41.13;100752.53;5036694;28;20191;-54
2023/01/01 06:08:15;;;;;;;7.40;2.97;;;17.50;57.20;;;20.11;40.70;100755.22;5037607;28;20197;-56
2023/01/01 06:10:42;;;;;;;4.13;2.50;;;17.50;57.20;;;20.13;40.94;100758.47;5036580;28;20210;-54
2023/01/01 06:13:08;;;;;;;5.70;2.50;;;17.50;57.20;;;20.13;40.56;100755.00;5037320;28;20199;-55
2023/01/01 06:15:39;;;;;;;4.37;2.27;;;17.50;57.10;;;20.11;40.91;100773.13;5038037;28;20186;-56
2023/01/01 06:18:06;;;;;;;5.07;2.50;;;17.50;57.00;;;20.12;41.01;100764.06;5035614;28;20261;-54
2023/01/01 06:20:33;;;;;;;3.43;2.20;;;17.50;57.40;;;20.16;40.56;100775.88;5037927;28;20210;-55
2023/01/01 06:23:00;;;;;;;6.10;2.53;;;17.50;57.30;;;20.10;40.99;100777.66;5037356;28;20194;-56
2023/01/01 06:25:28;;;;;;;5.70;2.77;;;17.50;57.10;;;20.07;40.84;100767.44;5032552;28;20187;-54
2023/01/01 06:27:55;;;;;;;4.67;2.50;;;17.50;56.90;;;20.05;40.86;100771.38;5016524;28;20263;-55
2023/01/01 06:30:22;;;;;;;8.43;2.47;;;17.50;57.10;;;20.05;40.85;100763.38;5016495;28;20222;-55
2023/01/01 06:32:48;;;;;;;6.80;2.47;;;17.50;56.90;;;20.07;40.46;100759.41;5015104;28;20625;-55
2023/01/01 06:35:15;;;;;;;4.03;2.40;;;17.50;57.10;;;20.11;40.48;100784.63;5014672;28;20198;-56
2023/01/01 06:37:42;;;;;;;7.77;2.47;;;17.50;57.20;;;19.99;40.32;100786.50;5016611;28;20322;-55
2023/01/01 06:40:10;;;;;;;4.93;1.70;;;17.50;56.70;;;19.83;41.05;100771.19;5025356;28;20213;-56
2023/01/01 06:42:38;;;;;;;3.10;1.87;;;17.40;56.60;;;19.86;40.58;100776.06;5036011;28;20194;-55
2023/01/01 06:45:07;;;;;;;5.43;2.17;;;17.40;56.70;;;19.91;40.90;100778.84;5038510;28;20672;-56
2023/01/01 06:47:35;;;;;;;5.63;2.07;;;17.40;56.70;;;19.96;40.83;100786.16;5036663;28;20191;-56
2023/01/01 06:50:03;;;;;;;3.70;1.53;;;17.40;56.90;;;19.92;40.40;100785.81;5039211;28;20272;-55
2023/01/01 06:52:30;;;;;;;4.03;1.47;;;17.40;56.90;;;19.93;40.68;100790.13;5043848;28;20277;-55
2023/01/01 06:54:57;;;;;;;4.43;1.83;;;17.40;57.10;;;19.94;40.77;100793.63;5024634;28;20202;-56
2023/01/01 06:57:24;;;;;;;2.50;1.53;;;17.40;57.20;;;19.95;41.21;100796.03;5014956;28;20249;-53
2023/01/01 06:59:52;;;;;;;4.20;1.67;;;17.40;57.40;;;19.93;40.87;100798.13;5021811;28;20206;-56
2023/01/01 07:02:19;;;;;;;4.87;1.50;;;17.40;57.30;;;19.92;40.85;100809.06;5033423;28;20190;-53
2023/01/01 07:04:46;;;;;;;3.27;1.60;;;17.30;57.30;;;19.92;41.42;100822.44;5033864;28;20218;-55
2023/01/01 07:07:13;;;;;;;2.97;1.47;;;17.30;57.50;;;19.94;41.33;100847.06;5033644;28;20202;-54
2023/01/01 07:09:40;;;;;;;4.00;1.73;;;17.30;57.70;;;19.93;41.53;100846.22;5033078;28;20287;-55
2023/01/01 07:12:07;;;;;;;6.10;2.00;;;17.30;57.90;;;19.83;41.30;100840.66;5033707;28;20206;-53
2023/01/01 07:14:34;;;;;;;3.73;1.60;;;17.30;57.80;;;19.70;41.54;100845.41;5033704;28;20198;-53
2023/01/01 07:17:02;;;;;;;5.07;1.70;;;17.30;57.80;;;19.72;41.50;100854.81;5033460;28;20197;-53
2023/01/01 07:19:29;;;;;;;5.20;1.97;;;17.20;57.80;;;19.70;41.44;100862.25;5033386;28;20584;-56
2023/01/01 07:21:56;;;;;;;4.27;1.83;;;17.20;57.70;;;19.73;41.29;100879.69;5032801;28;20195;-56
2023/01/01 07:24:23;;;;;;;3.77;1.60;;;17.20;57.80;;;19.71;41.60;100879.91;5013725;28;20214;-53
2023/01/01 07:26:50;;;;;;;5.13;1.70;;;17.20;57.90;;;19.67;41.78;100873.41;5013767;28;20230;-53
2023/01/01 07:29:17;;;;;;;5.73;1.80;;;17.20;57.80;;;19.50;41.82;100867.09;5013368;28;20261;-54
2023/01/01 07:31:44;;;;;;;2.93;1.50;;;17.10;57.60;;;19.57;41.87;100873.16;5013693;28;20199;-53
2023/01/01 07:34:18;;;;;;;2.47;1.60;;;17.10;58.40;;;19.49;41.71;100865.50;5013596;28;20649;-53
2023/01/01 07:36:45;;;;;;;3.87;1.83;;;17.10;58.10;;;19.54;42.23;100889.63;5021571;28;20195;-54
2023/01/01 07:39:12;;;;;;;2.30;1.70;;;17.10;58.20;;;19.55;42.01;100899.28;5032828;28;20671;-55
2023/01/01 07:41:39;;;;;;;2.23;1.23;;;17.10;58.20;;;19.59;41.65;100892.41;5033367;28;20191;-53
2023/01/01 07:44:06;;;;;;;3.27;1.80;;;17.10;58.10;;;19.62;41.70;100896.50;5032880;28;20218;-55
2023/01/01 07:46:34;;;;;;;5.30;1.80;;;17.00;57.90;;;19.64;41.79;100911.25;5034721;28;20262;-56
2023/01/01 07:49:03;;;;;;;4.83;1.50;;;17.10;58.10;;;19.67;41.13;100918.00;5034148;28;20210;-55
2023/01/01 07:51:31;;;;;;;2.33;1.27;;;17.00;57.70;;;19.70;41.25;100923.69;5020734;28;20257;-56
2023/01/01 07:53:58;;;;;;;3.97;1.50;;;17.00;57.50;;;19.66;40.74;100930.53;5013516;28;20198;-55
2023/01/01 07:56:33;;;;;;;3.87;1.50;;;17.00;57.20;;;19.67;41.19;100932.16;5013312;28;20179;-53
2023/01/01 07:59:00;;;;;;;7.13;1.60;;;17.00;57.30;;;19.65;40.89;100944.13;5014225;28;20217;-53
2023/01/01 08:01:27;;;;;;;4.80;1.70;;;17.00;57.70;;;19.66;41.51;100941.22;5032565;28;20551;-55
2023/01/01 08:03:54;;;;;;;4.60;1.50;;;17.00;58.00;;;19.66;41.48;100948.44;5032786;28;20245;-55
2023/01/01 08:06:21;;;;;;;1.97;1.30;;;17.00;58.10;;;19.59;41.79;100945.84;5013658;28;20246;-53
2023/01/01 08:08:50;;;;;;;3.67;1.40;;;17.00;58.30;;;19.61;42.05;100937.63;5012734;28;20214;-55
2023/01/01 08:11:16;;;;;;;7.97;2.00;;;17.00;58.30;;;19.64;42.03;100945.16;5013228;28;20632;-54
2023/01/01 08:13:43;;;;;;;3.17;1.67;;;17.00;58.40;;;19.67;42.00;100964.22;5013489;28;20192;-56
2023/01/01 08:16:10;;;;;;;3.63;1.50;;;17.00;58.50;;;19.67;42.00;100964.22;5013350;28;20609;-55
2023/01/01 08:18:37;;;;;;;3.43;1.23;;;17.00;58.40;;;19.66;41.68;100957.22;5016154;28;20221;-53
2023/01/01 08:21:05;;;;;;;2.53;1.50;;;17.00;58.00;;;19.67;41.85;100960.72;5032833;28;20559;-51
2023/01/01 08:23:32;;;;;;;3.20;1.57;;;17.00;58.10;;;19.67;41.74;100969.56;5033012;28;20670;-53
2023/01/01 08:26:02;;;;;;;2.20;1.33;;;17.00;58.00;;;19.69;41.65;100972.81;5033209;28;20221;-56
2023/01/01 08:28:29;;;;;;;3.80;1.63;;;17.00;57.90;;;19.68;41.55;100992.56;5032293;28;20217;-55
2023/01/01 08:30:58;;;;;;;2.90;1.60;;;17.00;57.90;;;19.66;41.51;100994.63;5032598;28;20197;-56
2023/01/01 08:33:25;;;;;;;6.10;1.53;;;17.00;57.90;;;19.67;41.45;100980.25;5031956;28;20198;-55
2023/01/01 08:35:52;;;;;;;3.33;1.57;;;17.00;58.00;;;19.71;41.50;100981.41;5032987;28;20193;-56
2023/01/01 08:38:21;;;;;;;3.57;1.90;;;17.00;58.20;;;19.73;41.80;100995.34;5032316;28;20246;-55
2023/01/01 08:40:48;;;;;;;6.83;1.70;;;17.00;58.50;;;19.73;41.92;100998.00;5032886;28;20297;-56
2023/01/01 08:43:16;;;;;;;5.00;1.67;;;17.00;58.70;;;19.72;42.13;100999.06;5032656;28;20214;-55
2023/01/01 08:45:44;;;;;;;4.90;1.40;;;17.00;58.90;;;19.74;41.99;101005.00;5032505;28;20683;-56
2023/01/01 08:48:11;;;;;;;5.73;1.93;;;17.00;59.20;;;19.68;42.65;101034.47;5018486;28;20196;-55
2023/01/01 08:50:38;;;;;;;5.53;1.90;;;17.00;59.40;;;19.69;42.70;101036.91;5014518;28;20214;-53
2023/01/01 08:53:05;;;;;;;4.90;1.67;;;17.00;59.40;;;19.68;41.98;101029.13;5016299;28;20226;-55
2023/01/01 08:55:32;;;;;;;3.60;1.67;;;17.00;59.00;;;19.67;41.97;101032.84;5016290;28;20187;-56
2023/01/01 08:57:59;;;;;;;5.10;1.73;;;16.90;58.60;;;19.70;41.99;101025.22;5016392;28;20198;-53
2023/01/01 09:00:27;;;;;;;4.90;1.60;;;17.00;58.60;;;19.58;41.23;101029.69;5023575;28;20207;-56
2023/01/01 09:02:54;;;;;;;4.27;1.80;;;17.00;57.70;;;19.63;41.16;101029.00;5016302;28;20640;-55
2023/01/01 09:05:21;;;;;;;5.53;1.60;;;17.00;57.70;;;19.62;40.94;101027.34;5016075;28;20246;-55
2023/01/01 09:07:48;;;;;;;3.83;1.90;;;17.00;57.30;;;19.60;40.77;101032.94;5015882;28;20195;-56
2023/01/01 09:10:15;;;;;;;2.00;1.37;;;16.90;57.00;;;19.60;41.29;101043.63;5015686;28;20215;-56
2023/01/01 09:12:42;;;;;;;3.20;1.77;;;17.00;57.20;;;19.67;40.98;101057.72;5015779;28;20241;-55
2023/01/01 09:15:15;;;;;;;4.80;1.87;;;17.00;57.20;;;19.73;40.73;101070.13;5016103;28;20196;-56
2023/01/01 09:17:43;;;;;;;5.17;1.50;;;17.00;57.10;;;19.78;40.35;101056.91;5016097;28;20183;-55
2023/01/01 09:20:11;;;;;;;3.47;1.50;;;17.00;56.90;;;19.73;39.43;101048.78;5015898;28;20213;-53
2023/01/01 09:22:38;;;;;;;3.37;1.50;;;17.00;55.20;;;19.69;39.04;101068.97;5015971;28;20199;-55
2023/01/01 09:25:05;;;;;;;2.27;1.27;;;17.10;54.40;;;19.71;38.57;101088.25;5015777;28;20723;-53
2023/01/01 09:27:33;;;;;;;3.37;1.47;;;17.10;53.60;;;19.72;37.57;101107.78;5016786;28;20583;-54
2023/01/01 09:30:00;;;;;;;4.07;1.20;;;17.10;52.30;;;19.74;37.04;101109.19;5015772;28;20218;-52
2023/01/01 09:32:27;;;;;;;1.73;1.27;;;17.00;51.80;;;19.77;37.13;101106.06;5015941;28;20239;-52
2023/01/01 09:34:56;;;;;;;3.67;1.10;;;17.10;51.70;;;19.80;36.95;101100.25;5016272;28;20195;-56
2023/01/01 09:37:23;;;;;;;1.83;0.90;;;17.10;51.40;;;19.81;37.06;101117.94;5016461;28;20203;-54
2023/01/01 09:39:50;;;;;;;4.43;0.90;;;17.10;51.30;;;19.84;37.01;101128.16;5015452;28;20211;-53
2023/01/01 09:42:34;;;;;;;1.83;1.07;;;17.10;51.40;;;19.83;36.20;101133.72;5017296;28;20655;-53
2023/01/01 09:45:24;;;;;;;1.50;1.10;;;17.10;50.70;;;19.78;36.57;101121.03;5016552;28;20195;-53
2023/01/01 09:47:56;;;;;;;2.83;0.90;;;17.10;50.40;;;19.81;35.91;101136.63;5036594;28;20194;-53
2023/01/01 09:50:38;;;;;;;1.73;0.70;;;17.10;50.30;;;19.81;35.86;101144.66;5036575;28;20214;-55
2023/01/01 09:53:11;;;;;;;2.70;1.30;;;17.10;50.30;;;19.83;36.32;101153.25;5034913;28;20204;-55
2023/01/01 09:55:45;;;;;;;3.40;0.90;;;17.10;50.10;;;19.77;36.32;101156.84;5034015;28;20233;-55
2023/01/01 09:58:12;;;;;;;1.60;0.80;;;17.10;50.10;;;19.81;36.09;101174.03;5034463;28;20191;-52
2023/01/01 10:00:45;;;;;;;1.17;0.97;;;17.10;50.20;;;19.79;36.22;101157.41;5034319;28;20210;-54
2023/01/01 10:03:36;;;;;;;2.90;1.13;;;17.10;50.10;;;19.77;36.55;101166.69;5029047;28;20261;-56
2023/01/01 10:06:20;;;;;;;2.20;1.20;;;17.10;50.60;;;19.75;36.56;101161.59;5015159;28;20199;-54
2023/01/01 10:09:06;;;;;;;2.13;0.93;;;17.10;50.60;;;19.75;36.67;101168.78;5014802;28;20211;-57
2023/01/01 10:11:50;;;;;;;3.13;1.10;;;17.10;50.50;;;19.72;36.02;101175.38;5014947;28;20315;-56
2023/01/01 10:14:27;;;;;;;3.83;1.40;;;17.10;50.20;;;19.73;36.06;101177.00;5015045;28;20211;-54
2023/01/01 10:16:58;;;;;;;2.67;1.10;;;17.10;50.20;;;19.80;36.41;101172.38;5014768;28;20179;-56
2023/01/01 10:19:33;;;;;;;3.40;1.10;;;17.10;50.30;;;19.79;35.76;101170.78;5015158;28;20241;-56
2023/01/01 10:22:10;;;;;;;5.50;1.07;;;17.10;49.80;;;19.82;36.28;101165.00;5034249;28;20193;-56
2023/01/01 10:24:45;;;;;;;2.67;0.97;;;17.10;50.00;;;19.85;35.89;101164.53;5034178;28;20198;-56
2023/01/01 10:27:28;;;;;;;2.53;1.07;;;17.10;50.00;;;19.68;36.03;101163.53;5034476;28;20220;-56
2023/01/01 10:29:56;;;;;;;0.87;0.73;;;17.00;49.40;;;19.71;36.01;101167.56;5033912;28;20760;-56
2023/01/01 10:32:33;;;;;;;1.80;1.20;;;17.10;49.60;;;19.65;36.36;101169.31;5033919;28;20194;-54